createdAt,value
2022-09-18T00:02:29.882Z,13.66
2022-09-18T00:07:31.415Z,13.58
2022-09-18T00:12:32.854Z,13.62
2022-09-18T00:17:34.372Z,13.51
2022-09-18T00:22:35.895Z,13.35
2022-09-18T00:27:37.347Z,13.56
2022-09-18T00:32:38.834Z,13.53
2022-09-18T00:37:40.446Z,13.59
2022-09-18T00:42:42.910Z,13.52
2022-09-18T00:47:47.755Z,13.43
2022-09-18T00:52:57.263Z,13.54
2022-09-18T00:58:01.027Z,13.47
2022-09-18T01:03:02.560Z,13.18
2022-09-18T01:08:30.880Z,13.52
2022-09-18T01:14:04.662Z,13.72
2022-09-18T01:19:25.225Z,13.76
2022-09-18T01:24:58.603Z,13.81
2022-09-18T01:30:04.803Z,13.51
2022-09-18T01:35:36.887Z,13.40
2022-09-18T01:40:40.609Z,13.67
2022-09-18T01:45:46.593Z,13.57
2022-09-18T01:50:54.437Z,13.76
2022-09-18T01:56:05.488Z,13.56
2022-09-18T02:01:13.753Z,13.64
2022-09-18T02:06:21.338Z,13.76
2022-09-18T02:11:24.186Z,13.69
2022-09-18T02:16:37.318Z,13.53
2022-09-18T02:21:42.223Z,13.73
2022-09-18T02:26:46.658Z,13.58
2022-09-18T02:31:48.919Z,13.58
2022-09-18T02:37:02.189Z,13.74
2022-09-18T02:42:12.597Z,13.80
2022-09-18T02:47:35.876Z,13.75
2022-09-18T02:52:50.289Z,13.86
2022-09-18T02:58:03.408Z,13.80
2022-09-18T03:03:04.911Z,13.84
2022-09-18T03:08:06.609Z,13.61
2022-09-18T03:13:08.009Z,13.60
2022-09-18T03:18:09.533Z,13.86
2022-09-18T03:23:11.020Z,13.81
2022-09-18T03:28:12.467Z,13.65
2022-09-18T03:33:14.010Z,13.77
2022-09-18T03:38:15.513Z,13.55
2022-09-18T03:43:17.095Z,13.83
2022-09-18T03:48:18.946Z,13.84
2022-09-18T03:53:20.416Z,13.85
2022-09-18T03:58:21.996Z,13.75
2022-09-18T04:03:23.511Z,13.86
2022-09-18T04:08:24.955Z,13.83
2022-09-18T04:13:26.402Z,13.68
2022-09-18T04:18:28.076Z,13.43
2022-09-18T04:23:29.645Z,13.65
2022-09-18T04:28:31.137Z,13.75
2022-09-18T04:33:32.553Z,13.67
2022-09-18T04:38:34.025Z,13.68
2022-09-18T04:43:35.697Z,13.74
2022-09-18T04:48:37.169Z,13.70
2022-09-18T04:53:38.628Z,13.77
2022-09-18T04:58:40.104Z,13.72
2022-09-18T05:03:41.573Z,13.72
2022-09-18T05:08:43.013Z,13.65
2022-09-18T05:13:48.193Z,13.69
2022-09-18T05:18:52.941Z,13.75
2022-09-18T05:23:54.450Z,13.85
2022-09-18T05:28:55.921Z,13.71
2022-09-18T05:33:57.353Z,13.59
2022-09-18T05:38:58.759Z,13.83
2022-09-18T05:44:00.193Z,13.70
2022-09-18T05:49:01.696Z,13.80
2022-09-18T05:54:03.521Z,13.95
2022-09-18T05:59:04.970Z,13.84
2022-09-18T06:04:06.450Z,13.82
2022-09-18T06:09:08.200Z,13.97
2022-09-18T06:14:09.815Z,13.91
2022-09-18T06:19:11.268Z,13.96
2022-09-18T06:24:12.791Z,14.02
2022-09-18T06:29:14.337Z,13.93
2022-09-18T06:34:16.107Z,13.86
2022-09-18T06:39:17.651Z,13.93
2022-09-18T06:44:19.124Z,13.97
2022-09-18T06:49:20.809Z,13.60
2022-09-18T06:54:22.305Z,13.53
2022-09-18T06:59:23.733Z,13.64
2022-09-18T07:04:25.242Z,13.78
2022-09-18T07:09:26.793Z,13.82
2022-09-18T07:14:28.289Z,13.75
2022-09-18T07:19:30.003Z,13.59
2022-09-18T07:24:31.486Z,13.68
2022-09-18T07:29:32.929Z,13.83
2022-09-18T07:34:34.421Z,13.72
2022-09-18T07:39:35.946Z,13.84
2022-09-18T07:44:37.646Z,14.05
2022-09-18T07:49:39.280Z,14.10
2022-09-18T07:54:40.765Z,13.95
2022-09-18T07:59:42.538Z,14.06
2022-09-18T08:04:44.032Z,14.28
2022-09-18T08:09:45.574Z,14.19
2022-09-18T08:14:47.094Z,14.33
2022-09-18T08:19:48.563Z,14.26
2022-09-18T08:24:50.131Z,14.19
2022-09-18T08:29:51.566Z,14.13
2022-09-18T08:34:53.128Z,14.22
2022-09-18T08:39:54.804Z,14.29
2022-09-18T08:45:04.085Z,14.43
2022-09-18T08:50:15.638Z,14.35
2022-09-18T08:55:26.474Z,14.61
2022-09-18T09:00:27.951Z,14.62
2022-09-18T09:05:43.245Z,14.67
2022-09-18T09:10:57.496Z,14.69
2022-09-18T09:16:23.161Z,14.62
2022-09-18T09:21:50.521Z,14.78
2022-09-18T09:26:55.022Z,14.88
2022-09-18T09:31:59.657Z,15.10
2022-09-18T09:37:06.537Z,15.02
2022-09-18T09:42:11.121Z,15.15
2022-09-18T09:47:48.663Z,15.06
2022-09-18T09:52:56.804Z,15.14
2022-09-18T09:58:20.785Z,15.08
2022-09-18T10:03:24.847Z,15.02
2022-09-18T10:08:39.523Z,15.06
2022-09-18T10:13:48.390Z,15.00
2022-09-18T10:18:49.899Z,15.11
2022-09-18T10:24:01.063Z,15.08
2022-09-18T10:29:02.814Z,14.95
2022-09-18T10:34:24.859Z,15.01
2022-09-18T10:39:36.096Z,14.79
2022-09-18T10:44:40.985Z,14.73
2022-09-18T10:50:02.679Z,14.84
2022-09-18T10:55:06.863Z,14.93
2022-09-18T11:00:28.268Z,15.13
2022-09-18T11:05:35.220Z,15.22
2022-09-18T11:10:37.022Z,15.21
2022-09-18T11:15:38.509Z,14.91
2022-09-18T11:20:44.847Z,14.80
2022-09-18T11:25:46.976Z,15.10
2022-09-18T11:31:11.640Z,15.21
2022-09-18T11:36:16.165Z,14.92
2022-09-18T11:41:26.216Z,15.19
2022-09-18T11:46:54.957Z,14.68
2022-09-18T11:52:12.324Z,15.18
2022-09-18T11:57:22.491Z,15.32
2022-09-18T12:02:32.564Z,15.28
2022-09-18T12:08:16.029Z,15.15
2022-09-18T12:13:36.170Z,15.19
2022-09-18T12:18:50.976Z,15.30
2022-09-18T12:23:52.424Z,15.36
2022-09-18T12:29:21.732Z,15.19
2022-09-18T12:34:29.352Z,15.15
2022-09-18T12:39:46.508Z,15.39
2022-09-18T12:45:17.794Z,15.29
2022-09-18T12:50:37.668Z,15.52
2022-09-18T12:55:51.281Z,15.48
2022-09-18T13:00:53.580Z,15.47
2022-09-18T13:06:01.567Z,15.62
2022-09-18T13:11:09.443Z,15.56
2022-09-18T13:16:32.014Z,15.46
2022-09-18T13:21:40.760Z,15.34
2022-09-18T13:26:45.341Z,15.50
2022-09-18T13:31:53.688Z,15.62
2022-09-18T13:37:05.534Z,15.45
2022-09-18T13:42:07.114Z,15.46
2022-09-18T13:47:12.478Z,15.40
2022-09-18T13:52:35.371Z,15.53
2022-09-18T13:57:37.216Z,15.52
2022-09-18T14:02:40.465Z,15.29
2022-09-18T14:07:48.103Z,15.58
2022-09-18T14:13:28.510Z,15.52
2022-09-18T14:18:45.142Z,15.42
2022-09-18T14:23:46.527Z,15.32
2022-09-18T14:28:48.775Z,15.56
2022-09-18T14:33:50.303Z,15.43
2022-09-18T14:38:51.891Z,15.42
2022-09-18T14:44:01.306Z,15.43
2022-09-18T14:49:02.858Z,15.36
2022-09-18T14:54:20.424Z,15.28
2022-09-18T14:59:22.873Z,15.45
2022-09-18T15:04:24.499Z,15.52
2022-09-18T15:09:30.721Z,15.66
2022-09-18T15:14:41.520Z,15.65
2022-09-18T15:20:14.255Z,15.62
2022-09-18T15:25:17.610Z,15.52
2022-09-18T15:30:21.784Z,15.41
2022-09-18T15:35:27.315Z,15.17
2022-09-18T15:40:32.293Z,15.47
2022-09-18T15:45:35.721Z,15.21
2022-09-18T15:50:39.254Z,15.43
2022-09-18T15:55:53.351Z,15.25
2022-09-18T16:00:58.790Z,15.26
2022-09-18T16:06:05.805Z,14.96
2022-09-18T16:11:07.297Z,14.92
2022-09-18T16:16:08.728Z,14.78
2022-09-18T16:21:10.444Z,14.91
2022-09-18T16:26:13.833Z,14.86
2022-09-18T16:31:18.439Z,14.59
2022-09-18T16:36:23.685Z,14.80
2022-09-18T16:41:25.148Z,14.66
2022-09-18T16:46:31.154Z,14.64
2022-09-18T16:51:32.885Z,14.43
2022-09-18T16:56:47.692Z,14.68
2022-09-18T17:02:03.261Z,14.13
2022-09-18T17:07:05.601Z,14.38
2022-09-18T17:12:07.664Z,14.43
2022-09-18T17:17:09.256Z,14.37
2022-09-18T17:22:11.180Z,13.96
2022-09-18T17:27:12.607Z,14.04
2022-09-18T17:32:14.218Z,14.07
2022-09-18T17:37:15.840Z,13.90
2022-09-18T17:42:17.358Z,13.99
2022-09-18T17:47:18.797Z,14.33
2022-09-18T17:52:21.029Z,14.37
2022-09-18T17:57:22.590Z,13.91
2022-09-18T18:02:24.142Z,13.48
2022-09-18T18:07:25.610Z,13.89
2022-09-18T18:12:27.178Z,14.00
2022-09-18T18:17:28.919Z,13.96
2022-09-18T18:22:31.008Z,14.03
2022-09-18T18:27:32.449Z,13.88
2022-09-18T18:32:33.884Z,13.94
2022-09-18T18:37:35.345Z,13.82
2022-09-18T18:42:36.829Z,13.81
2022-09-18T18:47:38.300Z,13.88
2022-09-18T18:52:39.752Z,14.09
2022-09-18T18:57:41.341Z,14.18
2022-09-18T19:02:42.855Z,13.89
2022-09-18T19:07:44.299Z,14.15
2022-09-18T19:12:45.727Z,14.10
2022-09-18T19:17:49.486Z,14.10
2022-09-18T19:22:51.887Z,14.20
2022-09-18T19:27:57.212Z,13.88
2022-09-18T19:32:58.840Z,13.46
2022-09-18T19:38:00.513Z,13.38
2022-09-18T19:43:06.822Z,13.40
2022-09-18T19:48:14.974Z,13.46
2022-09-18T19:53:16.493Z,13.43
2022-09-18T19:58:18.139Z,13.16
2022-09-18T20:03:19.659Z,13.08
2022-09-18T20:08:21.143Z,13.06
2022-09-18T20:13:23.280Z,13.37
2022-09-18T20:18:24.844Z,13.54
2022-09-18T20:23:26.268Z,13.50
2022-09-18T20:28:28.264Z,13.35
2022-09-18T20:33:29.813Z,13.20
2022-09-18T20:38:35.837Z,13.16
2022-09-18T20:43:37.753Z,13.29
2022-09-18T20:48:40.186Z,13.19
2022-09-18T20:53:43.429Z,13.16
2022-09-18T20:58:44.943Z,13.19
2022-09-18T21:03:49.024Z,12.73
2022-09-18T21:08:53.846Z,13.01
2022-09-18T21:13:58.218Z,12.71
2022-09-18T21:18:59.890Z,12.43
2022-09-18T21:24:04.438Z,12.54
2022-09-18T21:29:05.930Z,12.33
2022-09-18T21:34:12.845Z,12.33
2022-09-18T21:39:14.338Z,12.32
2022-09-18T21:44:17.597Z,12.15
2022-09-18T21:49:19.284Z,12.12
2022-09-18T21:54:22.186Z,12.12
2022-09-18T21:59:25.747Z,11.98
2022-09-18T22:04:30.119Z,12.05
2022-09-18T22:09:36.080Z,11.66
2022-09-18T22:14:37.541Z,12.23
2022-09-18T22:19:41.493Z,12.28
2022-09-18T22:24:43.305Z,12.20
2022-09-18T22:29:44.826Z,12.26
2022-09-18T22:34:46.381Z,12.28
2022-09-18T22:39:48.037Z,12.30
2022-09-18T22:44:49.486Z,12.26
2022-09-18T22:49:51.286Z,12.27
2022-09-18T22:54:52.977Z,12.21
2022-09-18T22:59:54.431Z,12.42
2022-09-18T23:04:55.881Z,12.34
2022-09-18T23:09:57.379Z,12.26
2022-09-18T23:14:58.871Z,12.08
2022-09-18T23:20:00.472Z,12.13
2022-09-18T23:25:02.040Z,12.40
2022-09-18T23:30:04.233Z,12.37
2022-09-18T23:35:06.259Z,12.31
2022-09-18T23:40:08.464Z,12.30
2022-09-18T23:45:10.551Z,12.17
2022-09-18T23:50:11.978Z,12.35
2022-09-18T23:55:13.467Z,12.31
